aviador You're here:

OIAA Decoded Metar

ABADAN in IRAN
Report Time2017-11-21 04:00:00
UTC Time2017-11-21 04:33:45
Flight Rules mvfr MVFR
Wind110° at 02 kt
W.Decomp.*RWY 14: 1.7 kt HW 1.1 kt LCW
W.Rank110° ranks 27
Current wind is below 110° avg. (7.0)
Visibility6000 m
Phenomena:N/A
Clouds:Few CB 035 Hf
Scattered 040 Hf
Overcast 100 Hf
Expected CloudBase > 1,200 ft AGL from Temp-Dew spread
Ceiling10,000 ft
Temp22°C (ISA +7)
Dew Point19°C (83% RH)
QNH1013 hPa
Density Alt1,152 ft
Elevation36 ft
Report Wrong Elevation
Raw Report
METAR OIAA 210400Z 11002KT 6000 FEW035CB SCT040 OVC100 22/19 Q1013=

Extra information for OIAA:More info

Metar Taf Metar & Taf Last 4 Metars F.Rules Stats Wind Profile Meteogram Temp Stats Airport Information Weather charts Add Link Nearby VenuesMetar ALERT Operation Metar Decoded Social comments